createdAt,value
2022-09-23T00:01:14.233Z,13.67
2022-09-23T00:03:42.657Z,13.38
2022-09-23T00:06:12.322Z,12.98
2022-09-23T00:08:40.405Z,11.93
2022-09-23T00:11:16.384Z,12.10
2022-09-23T00:13:45.093Z,9.90
2022-09-23T00:16:15.007Z,14.73
2022-09-23T00:18:42.518Z,12.30
2022-09-23T00:21:11.963Z,13.70
2022-09-23T00:23:40.693Z,12.63
2022-09-23T00:26:09.102Z,12.13
2022-09-23T00:28:36.604Z,12.40
2022-09-23T00:31:05.577Z,12.07
2022-09-23T00:33:32.850Z,11.45
2022-09-23T00:36:05.940Z,12.68
2022-09-23T00:38:34.015Z,13.50
2022-09-23T00:41:01.593Z,10.93
2022-09-23T00:43:58.647Z,11.23
2022-09-23T00:46:31.020Z,12.05
2022-09-23T00:49:10.949Z,12.20
2022-09-23T00:51:41.610Z,13.57
2022-09-23T00:54:09.106Z,12.25
2022-09-23T00:56:39.330Z,14.00
2022-09-23T00:59:09.610Z,10.80
2022-09-23T01:01:37.683Z,14.80
2022-09-23T01:04:06.954Z,9.70
2022-09-23T01:06:34.186Z,15.50
2022-09-23T01:09:01.418Z,12.73
2022-09-23T01:11:38.124Z,18.73
2022-09-23T01:14:13.761Z,11.18
2022-09-23T01:16:58.793Z,20.43
2022-09-23T01:19:43.498Z,14.70
2022-09-23T01:22:22.854Z,12.45
2022-09-23T01:25:05.483Z,11.82
2022-09-23T01:27:59.445Z,11.38
2022-09-23T01:31:04.165Z,13.47
2022-09-23T01:33:32.010Z,13.15
2022-09-23T01:35:59.193Z,12.30
2022-09-23T01:38:26.371Z,11.18
2022-09-23T01:41:25.612Z,11.27
2022-09-23T01:43:52.745Z,12.00
2022-09-23T01:46:58.668Z,10.02
2022-09-23T01:49:32.503Z,12.10
2022-09-23T01:52:10.042Z,18.00
2022-09-23T01:54:42.230Z,11.82
2022-09-23T01:57:18.814Z,11.73
2022-09-23T01:59:51.015Z,11.13
2022-09-23T02:02:21.971Z,13.73
2022-09-23T02:05:02.328Z,12.10
2022-09-23T02:07:44.994Z,17.02
2022-09-23T02:10:14.095Z,8.77
2022-09-23T02:12:43.998Z,13.27
2022-09-23T02:15:15.607Z,12.45
2022-09-23T02:18:10.072Z,13.70
2022-09-23T02:20:39.760Z,14.27
2022-09-23T02:23:13.267Z,13.63
2022-09-23T02:26:04.986Z,13.55
2022-09-23T02:28:52.495Z,12.00
2022-09-23T02:31:20.028Z,12.77
2022-09-23T02:33:58.725Z,11.93
2022-09-23T02:36:32.244Z,12.17
2022-09-23T02:39:08.706Z,11.68
2022-09-23T02:41:51.490Z,12.38
2022-09-23T02:44:20.496Z,17.80
2022-09-23T02:46:50.378Z,12.52
2022-09-23T02:49:23.276Z,12.83
2022-09-23T02:51:51.143Z,14.00
2022-09-23T02:54:37.401Z,12.73
2022-09-23T02:57:06.358Z,12.23
2022-09-23T02:59:34.260Z,13.32
2022-09-23T03:02:21.844Z,12.00
2022-09-23T03:05:18.155Z,14.57
2022-09-23T03:08:18.915Z,14.40
2022-09-23T03:11:13.460Z,15.70
2022-09-23T03:14:19.774Z,14.85
2022-09-23T03:17:01.458Z,11.10
2022-09-23T03:19:47.773Z,14.80
2022-09-23T03:22:25.005Z,16.40
2022-09-23T03:24:54.447Z,13.60
2022-09-23T03:27:26.724Z,16.23
2022-09-23T03:29:55.017Z,14.40
2022-09-23T03:32:27.848Z,17.35
2022-09-23T03:34:57.660Z,15.98
2022-09-23T03:37:47.729Z,18.02
2022-09-23T03:40:29.843Z,18.42
2022-09-23T03:42:57.676Z,15.00
2022-09-23T03:45:29.652Z,16.77
2022-09-23T03:47:56.479Z,18.35
2022-09-23T03:50:23.704Z,17.42
2022-09-23T03:52:50.954Z,15.77
2022-09-23T03:55:19.467Z,16.87
2022-09-23T03:57:46.590Z,15.88
2022-09-23T04:00:14.671Z,15.57
2022-09-23T04:02:42.260Z,17.98
2022-09-23T04:05:10.413Z,13.95
2022-09-23T04:07:37.623Z,20.50
2022-09-23T04:10:05.885Z,18.60
2022-09-23T04:12:33.034Z,15.63
2022-09-23T04:15:00.399Z,14.93
2022-09-23T04:17:27.651Z,14.35
2022-09-23T04:19:54.861Z,16.63
2022-09-23T04:22:22.356Z,17.92
2022-09-23T04:24:49.567Z,18.75
2022-09-23T04:27:16.875Z,19.13
2022-09-23T04:29:44.427Z,59.90
2022-09-23T04:32:11.753Z,21.40
2022-09-23T04:34:38.482Z,19.80
2022-09-23T04:37:05.242Z,21.13
2022-09-23T04:39:32.749Z,19.75
2022-09-23T04:41:59.940Z,18.73
2022-09-23T04:44:28.283Z,16.90
2022-09-23T04:46:55.567Z,16.98
2022-09-23T04:49:23.545Z,18.25
2022-09-23T04:51:50.858Z,20.67
2022-09-23T04:54:19.022Z,17.30
2022-09-23T04:56:46.274Z,19.93
2022-09-23T04:59:13.438Z,19.55
2022-09-23T05:01:40.844Z,20.10
2022-09-23T05:04:13.777Z,19.55
2022-09-23T05:06:43.985Z,22.40
2022-09-23T05:09:16.206Z,17.00
2022-09-23T05:11:43.678Z,21.25
2022-09-23T05:14:10.967Z,25.42
2022-09-23T05:16:37.793Z,20.80
2022-09-23T05:19:05.448Z,21.58
2022-09-23T05:21:32.800Z,20.40
2022-09-23T05:24:00.777Z,23.10
2022-09-23T05:26:30.133Z,18.48
2022-09-23T05:28:58.035Z,18.13
2022-09-23T05:31:27.364Z,19.10
2022-09-23T05:33:59.507Z,21.70
2022-09-23T05:36:28.058Z,24.08
2022-09-23T05:38:57.421Z,24.23
2022-09-23T05:41:25.951Z,19.63
2022-09-23T05:43:54.705Z,21.67
2022-09-23T05:46:30.368Z,20.93
2022-09-23T05:49:08.160Z,17.63
2022-09-23T05:51:35.941Z,19.65
2022-09-23T05:54:04.281Z,22.90
2022-09-23T05:56:32.808Z,19.30
2022-09-23T05:59:01.361Z,21.03
2022-09-23T06:01:32.146Z,18.33
2022-09-23T06:04:00.334Z,18.02
2022-09-23T06:06:34.918Z,21.77
2022-09-23T06:09:02.609Z,16.40
2022-09-23T06:11:34.138Z,17.13
2022-09-23T06:14:02.432Z,17.70
2022-09-23T06:16:31.861Z,27.38
2022-09-23T06:19:05.961Z,20.17
2022-09-23T06:21:35.244Z,19.23
2022-09-23T06:24:03.166Z,20.63
2022-09-23T06:26:33.619Z,18.25
2022-09-23T06:29:01.697Z,21.58
2022-09-23T06:31:29.163Z,18.45
2022-09-23T06:34:08.053Z,17.75
2022-09-23T06:36:44.046Z,17.03
2022-09-23T06:39:12.665Z,17.83
2022-09-23T06:41:43.782Z,23.13
2022-09-23T06:44:14.627Z,17.85
2022-09-23T06:46:42.171Z,21.55
2022-09-23T06:49:09.629Z,16.57
2022-09-23T06:51:36.850Z,19.02
2022-09-23T06:54:04.450Z,19.50
2022-09-23T06:56:34.831Z,23.27
2022-09-23T06:59:05.404Z,18.65
2022-09-23T07:01:33.406Z,19.57
2022-09-23T07:04:01.746Z,22.80
2022-09-23T07:06:29.043Z,17.25
2022-09-23T07:08:56.255Z,22.83
2022-09-23T07:11:23.681Z,18.98
2022-09-23T07:13:50.968Z,23.23
2022-09-23T07:16:18.244Z,20.05
2022-09-23T07:18:45.714Z,22.75
2022-09-23T07:21:15.559Z,18.55
2022-09-23T07:23:44.649Z,21.13
2022-09-23T07:26:11.833Z,21.47
2022-09-23T07:28:39.275Z,20.08
2022-09-23T07:31:12.027Z,20.92
2022-09-23T07:33:44.102Z,18.60
2022-09-23T07:36:13.962Z,22.23
2022-09-23T07:38:45.174Z,18.33
2022-09-23T07:41:15.543Z,16.17
2022-09-23T07:43:44.044Z,22.17
2022-09-23T07:46:14.543Z,19.63
2022-09-23T07:48:41.614Z,22.98
2022-09-23T07:51:12.463Z,17.70
2022-09-23T07:53:40.145Z,19.75
2022-09-23T07:56:07.528Z,15.75
2022-09-23T07:58:35.112Z,18.25
2022-09-23T08:01:07.338Z,19.83
2022-09-23T08:03:35.155Z,16.80
2022-09-23T08:06:14.010Z,17.73
2022-09-23T08:08:44.521Z,19.70
2022-09-23T08:11:14.173Z,16.92
2022-09-23T08:13:41.572Z,15.38
2022-09-23T08:16:11.328Z,18.87
2022-09-23T08:18:38.538Z,16.48
2022-09-23T08:21:05.808Z,17.42
2022-09-23T08:23:33.886Z,15.98
2022-09-23T08:26:02.463Z,18.10
2022-09-23T08:28:29.973Z,17.47
2022-09-23T08:30:57.369Z,17.17
2022-09-23T08:33:24.643Z,18.27
2022-09-23T08:35:52.618Z,13.25
2022-09-23T08:38:20.687Z,17.20
2022-09-23T08:40:49.822Z,18.97
2022-09-23T08:43:29.850Z,15.70
2022-09-23T08:46:00.268Z,19.50
2022-09-23T08:48:34.722Z,15.63
2022-09-23T08:51:11.061Z,13.57
2022-09-23T08:53:38.604Z,26.10
2022-09-23T08:56:14.688Z,19.63
2022-09-23T08:59:05.160Z,15.50
2022-09-23T09:01:51.876Z,19.27
2022-09-23T09:04:20.694Z,14.00
2022-09-23T09:06:54.343Z,21.13
2022-09-23T09:09:55.101Z,18.23
2022-09-23T09:12:44.900Z,16.73
2022-09-23T09:15:18.753Z,18.08
2022-09-23T09:17:48.400Z,14.98
2022-09-23T09:20:18.881Z,20.30
2022-09-23T09:23:16.846Z,18.25
2022-09-23T09:26:02.978Z,17.95
2022-09-23T09:28:41.684Z,15.82
2022-09-23T09:31:39.894Z,18.27
2022-09-23T09:34:41.215Z,18.50
2022-09-23T09:37:31.752Z,15.43
2022-09-23T09:39:59.099Z,16.88
2022-09-23T09:42:45.025Z,15.85
2022-09-23T09:45:24.115Z,15.70
2022-09-23T09:48:10.806Z,16.40
2022-09-23T09:50:51.927Z,18.48
2022-09-23T09:53:32.111Z,14.50
2022-09-23T09:56:05.633Z,20.13
2022-09-23T09:58:35.070Z,18.08
2022-09-23T10:01:02.100Z,17.37
2022-09-23T10:03:39.440Z,14.82
2022-09-23T10:06:35.852Z,20.85
2022-09-23T10:09:03.111Z,15.95
2022-09-23T10:11:30.727Z,16.48
2022-09-23T10:14:00.541Z,15.03
2022-09-23T10:16:28.183Z,23.75
2022-09-23T10:18:57.181Z,14.45
2022-09-23T10:21:27.889Z,14.32
2022-09-23T10:23:58.568Z,15.50
2022-09-23T10:26:33.051Z,12.40
2022-09-23T10:29:29.999Z,13.93
2022-09-23T10:32:40.028Z,17.38
2022-09-23T10:35:09.572Z,14.68
2022-09-23T10:37:39.697Z,13.65
2022-09-23T10:40:57.700Z,14.13
2022-09-23T10:44:30.007Z,14.10
2022-09-23T10:47:16.277Z,15.10
2022-09-23T10:50:08.172Z,14.90
2022-09-23T10:52:46.451Z,12.93
2022-09-23T10:55:41.705Z,15.73
2022-09-23T10:58:52.576Z,15.27
2022-09-23T11:01:19.788Z,12.50
2022-09-23T11:04:19.277Z,21.45
2022-09-23T11:06:59.622Z,28.50
2022-09-23T11:09:41.382Z,13.40
2022-09-23T11:12:21.327Z,12.02
2022-09-23T11:15:00.854Z,11.85
2022-09-23T11:18:08.375Z,11.77
2022-09-23T11:20:54.507Z,9.68
2022-09-23T11:23:37.205Z,9.30
2022-09-23T11:26:07.144Z,10.20
2022-09-23T11:28:54.989Z,10.52
2022-09-23T11:31:34.385Z,10.93
2022-09-23T11:34:08.140Z,16.88
2022-09-23T11:36:50.369Z,13.10
2022-09-23T11:39:28.015Z,13.68
2022-09-23T11:41:59.269Z,11.35
2022-09-23T11:44:51.813Z,10.75
2022-09-23T11:47:23.907Z,12.35
2022-09-23T11:49:58.945Z,12.20
2022-09-23T11:52:39.962Z,11.73
2022-09-23T11:55:22.620Z,9.80
2022-09-23T11:58:05.723Z,11.88
2022-09-23T12:00:39.089Z,12.88
2022-09-23T12:03:06.829Z,10.80
2022-09-23T12:05:41.944Z,9.02
2022-09-23T12:08:32.427Z,10.10
2022-09-23T12:10:59.702Z,11.95
2022-09-23T12:13:45.105Z,7.53
2022-09-23T12:16:58.990Z,11.13
2022-09-23T12:20:02.971Z,11.75
2022-09-23T12:22:36.616Z,7.82
2022-09-23T12:25:37.737Z,12.70
2022-09-23T12:28:11.276Z,10.38
2022-09-23T12:30:38.819Z,10.33
2022-09-23T12:33:22.054Z,9.10
2022-09-23T12:35:49.548Z,13.48
2022-09-23T12:38:21.378Z,9.10
2022-09-23T12:40:48.737Z,12.43
2022-09-23T12:43:18.318Z,9.10
2022-09-23T12:45:45.595Z,11.52
2022-09-23T12:48:18.382Z,11.60
2022-09-23T12:50:49.303Z,12.80
2022-09-23T12:53:34.305Z,10.00
2022-09-23T12:56:01.686Z,9.37
2022-09-23T12:58:43.844Z,11.27
2022-09-23T13:01:22.999Z,9.98
2022-09-23T13:04:16.699Z,9.70
2022-09-23T13:06:57.871Z,8.82
2022-09-23T13:09:37.295Z,9.20
2022-09-23T13:12:08.833Z,13.30
2022-09-23T13:14:37.224Z,10.07
2022-09-23T13:17:04.796Z,9.52
2022-09-23T13:19:36.595Z,12.23
2022-09-23T13:22:11.066Z,8.83
2022-09-23T13:24:42.291Z,10.45
2022-09-23T13:27:20.215Z,12.85
2022-09-23T13:30:01.231Z,15.70
2022-09-23T13:32:38.234Z,11.13
2022-09-23T13:35:14.523Z,12.57
2022-09-23T13:37:47.541Z,9.85
2022-09-23T13:40:24.949Z,8.77
2022-09-23T13:42:59.394Z,11.45
2022-09-23T13:45:28.129Z,9.18
2022-09-23T13:48:01.666Z,10.90
2022-09-23T13:50:34.224Z,8.43
2022-09-23T13:53:07.543Z,9.60
2022-09-23T13:55:37.579Z,10.13
2022-09-23T13:58:21.008Z,8.05
2022-09-23T14:00:49.943Z,11.17
2022-09-23T14:03:38.468Z,11.40
2022-09-23T14:06:12.368Z,16.13
2022-09-23T14:08:46.137Z,14.80
2022-09-23T14:11:29.542Z,12.18
2022-09-23T14:13:57.921Z,13.77
2022-09-23T14:16:28.128Z,15.45
2022-09-23T14:19:00.115Z,12.80
2022-09-23T14:21:39.089Z,15.68
2022-09-23T14:24:20.995Z,23.50
2022-09-23T14:26:53.218Z,14.93
2022-09-23T14:29:26.186Z,15.02
2022-09-23T14:32:01.485Z,13.95
2022-09-23T14:34:53.075Z,13.43
2022-09-23T14:37:44.856Z,15.30
2022-09-23T14:40:39.930Z,14.97
2022-09-23T14:43:15.778Z,18.63
2022-09-23T14:45:50.446Z,15.38
2022-09-23T14:48:23.126Z,14.98
2022-09-23T14:50:54.500Z,15.27
2022-09-23T14:53:24.907Z,16.30
2022-09-23T14:56:06.787Z,15.07
2022-09-23T14:58:58.676Z,14.93
2022-09-23T15:01:32.136Z,14.52
2022-09-23T15:04:11.352Z,18.02
2022-09-23T15:06:42.141Z,18.03
2022-09-23T15:09:17.638Z,16.20
2022-09-23T15:11:44.586Z,24.88
2022-09-23T15:14:33.534Z,14.35
2022-09-23T15:17:01.295Z,16.08
2022-09-23T15:19:31.499Z,18.70
2022-09-23T15:21:58.687Z,15.38
2022-09-23T15:24:41.626Z,12.75
2022-09-23T15:27:26.191Z,14.80
2022-09-23T15:29:53.993Z,12.82
2022-09-23T15:32:22.186Z,15.13
2022-09-23T15:34:50.439Z,14.05
2022-09-23T15:37:17.771Z,23.33
2022-09-23T15:39:45.013Z,16.15
2022-09-23T15:42:11.976Z,16.52
2022-09-23T15:44:39.424Z,14.43
2022-09-23T15:47:07.450Z,12.65
2022-09-23T15:49:41.953Z,12.65
2022-09-23T15:52:12.162Z,12.77
2022-09-23T15:54:39.878Z,13.35
2022-09-23T15:57:06.677Z,13.37
2022-09-23T15:59:33.547Z,13.15
2022-09-23T16:02:05.874Z,13.65
2022-09-23T16:04:32.995Z,15.52
2022-09-23T16:07:01.161Z,15.60
2022-09-23T16:09:31.502Z,18.57
2022-09-23T16:12:01.646Z,14.63
2022-09-23T16:14:29.013Z,16.35
2022-09-23T16:16:56.274Z,18.88
2022-09-23T16:19:23.472Z,20.48
2022-09-23T16:21:50.482Z,22.60
2022-09-23T16:24:18.713Z,17.30
2022-09-23T16:26:48.132Z,17.10
2022-09-23T16:29:15.322Z,26.98
2022-09-23T16:31:42.653Z,18.05
2022-09-23T16:34:09.938Z,19.73
2022-09-23T16:36:42.191Z,20.05
2022-09-23T16:39:12.502Z,18.85
2022-09-23T16:41:40.143Z,17.13
2022-09-23T16:44:09.241Z,19.42
2022-09-23T16:46:37.045Z,24.30
2022-09-23T16:49:04.680Z,18.98
2022-09-23T16:51:38.257Z,20.70
2022-09-23T16:54:10.846Z,20.95
2022-09-23T16:56:41.842Z,21.60
2022-09-23T16:59:09.152Z,22.83
2022-09-23T17:01:55.053Z,24.90
2022-09-23T17:04:22.618Z,23.42
2022-09-23T17:06:51.365Z,42.50
2022-09-23T17:09:23.216Z,29.58
2022-09-23T17:12:04.472Z,24.60
2022-09-23T17:14:31.889Z,26.55
2022-09-23T17:16:59.307Z,23.25
2022-09-23T17:19:26.330Z,23.55
2022-09-23T17:21:53.837Z,26.30
2022-09-23T17:24:21.107Z,25.00
2022-09-23T17:26:52.617Z,21.67
2022-09-23T17:29:20.679Z,24.40
2022-09-23T17:31:47.897Z,24.90
2022-09-23T17:34:16.337Z,25.45
2022-09-23T17:36:43.957Z,24.43
2022-09-23T17:39:11.457Z,24.95
2022-09-23T17:41:39.220Z,25.65
2022-09-23T17:44:08.063Z,29.27
2022-09-23T17:46:35.260Z,25.75
2022-09-23T17:49:03.944Z,25.47
2022-09-23T17:51:31.383Z,25.38
2022-09-23T17:53:58.617Z,27.05
2022-09-23T17:56:26.901Z,30.52
2022-09-23T17:58:54.272Z,29.83
2022-09-23T18:01:23.713Z,27.67
2022-09-23T18:03:58.695Z,41.42
2022-09-23T18:06:28.628Z,31.90
2022-09-23T18:08:56.104Z,30.55
2022-09-23T18:11:25.101Z,24.58
2022-09-23T18:13:57.171Z,31.33
2022-09-23T18:16:26.455Z,31.25
2022-09-23T18:18:54.653Z,30.90
2022-09-23T18:21:22.821Z,30.33
2022-09-23T18:23:50.479Z,32.13
2022-09-23T18:26:19.379Z,30.87
2022-09-23T18:28:48.086Z,34.35
2022-09-23T18:31:17.268Z,28.95
2022-09-23T18:33:44.668Z,31.15
2022-09-23T18:36:11.935Z,30.88
2022-09-23T18:38:39.848Z,30.53
2022-09-23T18:41:07.189Z,23.73
2022-09-23T18:43:40.037Z,30.00
2022-09-23T18:46:13.118Z,31.10
2022-09-23T18:48:59.700Z,32.95
2022-09-23T18:51:31.870Z,27.20
2022-09-23T18:54:01.298Z,28.45
2022-09-23T18:56:33.576Z,26.70
2022-09-23T18:59:00.885Z,31.48
2022-09-23T19:01:28.712Z,28.98
2022-09-23T19:03:56.181Z,30.00
2022-09-23T19:06:23.718Z,29.20
2022-09-23T19:08:55.088Z,25.15
2022-09-23T19:11:23.787Z,35.88
2022-09-23T19:13:55.357Z,31.40
2022-09-23T19:16:23.413Z,23.73
2022-09-23T19:18:51.572Z,33.65
2022-09-23T19:21:20.771Z,31.27
2022-09-23T19:23:50.567Z,29.02
2022-09-23T19:26:20.492Z,26.42
2022-09-23T19:28:52.089Z,32.50
2022-09-23T19:31:23.000Z,36.03
2022-09-23T19:33:56.737Z,27.35
2022-09-23T19:36:32.201Z,28.23
2022-09-23T19:39:08.549Z,31.55
2022-09-23T19:41:35.746Z,32.90
2022-09-23T19:44:03.326Z,28.75
2022-09-23T19:46:32.460Z,26.92
2022-09-23T19:49:00.280Z,35.53
2022-09-23T19:51:28.247Z,25.35
2022-09-23T19:53:55.078Z,26.33
2022-09-23T19:56:22.444Z,31.73
2022-09-23T19:58:58.175Z,28.70
2022-09-23T20:01:29.368Z,32.85
2022-09-23T20:03:56.779Z,32.10
2022-09-23T20:06:23.601Z,33.07
2022-09-23T20:08:51.029Z,30.83
2022-09-23T20:11:27.601Z,32.47
2022-09-23T20:14:00.995Z,29.27
2022-09-23T20:16:32.155Z,30.10
2022-09-23T20:19:00.292Z,29.37
2022-09-23T20:21:29.201Z,26.15
2022-09-23T20:23:56.780Z,30.05
2022-09-23T20:26:42.473Z,32.03
2022-09-23T20:29:10.822Z,29.52
2022-09-23T20:31:40.432Z,30.27
2022-09-23T20:34:08.221Z,29.70
2022-09-23T20:36:36.220Z,32.40
2022-09-23T20:39:08.051Z,31.00
2022-09-23T20:41:38.057Z,31.08
2022-09-23T20:44:13.847Z,30.27
2022-09-23T20:46:47.568Z,30.42
2022-09-23T20:49:17.613Z,28.48
2022-09-23T20:51:45.147Z,32.33
2022-09-23T20:54:12.470Z,28.98
2022-09-23T20:56:39.627Z,32.77
2022-09-23T20:59:07.006Z,32.10
2022-09-23T21:01:35.451Z,32.45
2022-09-23T21:04:04.939Z,31.73
2022-09-23T21:06:32.350Z,32.95
2022-09-23T21:08:59.592Z,36.20
2022-09-23T21:11:27.286Z,27.40
2022-09-23T21:13:54.689Z,34.13
2022-09-23T21:16:22.898Z,29.45
2022-09-23T21:18:51.336Z,29.27
2022-09-23T21:21:19.733Z,32.93
2022-09-23T21:23:47.592Z,38.33
2022-09-23T21:26:21.632Z,34.60
2022-09-23T21:28:50.273Z,33.08
2022-09-23T21:31:23.161Z,36.17
2022-09-23T21:34:03.344Z,33.57
2022-09-23T21:36:37.010Z,32.92
2022-09-23T21:39:05.628Z,33.05
2022-09-23T21:41:33.488Z,32.63
2022-09-23T21:44:02.509Z,32.85
2022-09-23T21:46:29.798Z,31.93
2022-09-23T21:48:58.702Z,37.03
2022-09-23T21:51:27.877Z,31.42
2022-09-23T21:53:56.797Z,31.77
2022-09-23T21:56:29.454Z,33.05
2022-09-23T21:58:58.600Z,37.60
2022-09-23T22:01:28.141Z,32.80
2022-09-23T22:03:58.165Z,37.28
2022-09-23T22:06:27.454Z,36.80
2022-09-23T22:09:00.179Z,33.60
2022-09-23T22:11:48.425Z,42.23
2022-09-23T22:14:17.190Z,35.83
2022-09-23T22:16:44.847Z,43.03
2022-09-23T22:19:13.660Z,38.17
2022-09-23T22:21:41.971Z,44.10
2022-09-23T22:24:10.460Z,38.23
2022-09-23T22:26:44.622Z,43.10
2022-09-23T22:29:32.559Z,42.97
2022-09-23T22:32:19.921Z,36.03
2022-09-23T22:34:50.578Z,44.63
2022-09-23T22:37:28.917Z,47.63
2022-09-23T22:39:56.196Z,39.50
2022-09-23T22:42:23.154Z,41.17
2022-09-23T22:44:50.876Z,38.67
2022-09-23T22:47:19.838Z,41.47
2022-09-23T22:49:47.606Z,41.13
2022-09-23T22:52:20.774Z,42.70
2022-09-23T22:54:47.590Z,43.95
2022-09-23T22:57:15.278Z,41.55
2022-09-23T22:59:47.810Z,44.88
2022-09-23T23:02:16.577Z,44.63
2022-09-23T23:04:45.189Z,47.58
2022-09-23T23:07:19.897Z,37.38
2022-09-23T23:09:50.775Z,43.42
2022-09-23T23:12:19.881Z,45.33
2022-09-23T23:14:47.841Z,36.43
2022-09-23T23:17:15.060Z,47.33
2022-09-23T23:19:42.360Z,46.08
2022-09-23T23:22:09.198Z,44.70
2022-09-23T23:24:36.419Z,40.40
2022-09-23T23:27:03.583Z,48.60
2022-09-23T23:29:30.879Z,43.75
2022-09-23T23:31:58.249Z,44.17
2022-09-23T23:34:25.446Z,42.00
2022-09-23T23:36:56.655Z,47.35
2022-09-23T23:39:24.951Z,46.40
2022-09-23T23:41:56.110Z,40.85
2022-09-23T23:44:25.206Z,40.30
2022-09-23T23:46:52.833Z,41.05
2022-09-23T23:49:20.234Z,40.03
2022-09-23T23:51:47.895Z,37.67
2022-09-23T23:54:15.399Z,39.40
2022-09-23T23:56:42.723Z,35.90
2022-09-23T23:59:10.001Z,34.17
